sensor_id;sensor_type;location;lat;lon;timestamp;temperature;humidity
8655;DHT22;13500;52.514;13.462;2022-09-12T00:01:07;15.00;99.90
8655;DHT22;13500;52.514;13.462;2022-09-12T00:03:38;14.90;99.90
8655;DHT22;13500;52.514;13.462;2022-09-12T00:06:08;14.90;99.90
8655;DHT22;13500;52.514;13.462;2022-09-12T00:08:36;14.90;99.90
8655;DHT22;13500;52.514;13.462;2022-09-12T00:11:07;14.90;99.90
8655;DHT22;13500;52.514;13.462;2022-09-12T00:13:37;14.80;99.90
8655;DHT22;13500;52.514;13.462;2022-09-12T00:16:14;14.70;99.90
8655;DHT22;13500;52.514;13.462;2022-09-12T00:18:43;14.70;99.90
8655;DHT22;13500;52.514;13.462;2022-09-12T00:21:13;14.70;99.90
8655;DHT22;13500;52.514;13.462;2022-09-12T00:23:41;14.60;99.90
8655;DHT22;13500;52.514;13.462;2022-09-12T00:26:10;14.60;99.90
8655;DHT22;13500;52.514;13.462;2022-09-12T00:28:40;14.60;99.90
8655;DHT22;13500;52.514;13.462;2022-09-12T00:31:10;14.60;99.90
8655;DHT22;13500;52.514;13.462;2022-09-12T00:33:39;14.60;99.90
8655;DHT22;13500;52.514;13.462;2022-09-12T00:36:09;14.60;99.90
8655;DHT22;13500;52.514;13.462;2022-09-12T00:38:38;14.50;99.90
8655;DHT22;13500;52.514;13.462;2022-09-12T00:41:13;14.50;99.90
8655;DHT22;13500;52.514;13.462;2022-09-12T00:43:45;14.50;99.90
8655;DHT22;13500;52.514;13.462;2022-09-12T00:46:25;14.40;99.90
8655;DHT22;13500;52.514;13.462;2022-09-12T00:48:59;14.40;99.90
8655;DHT22;13500;52.514;13.462;2022-09-12T00:51:29;14.40;99.90
8655;DHT22;13500;52.514;13.462;2022-09-12T00:53:59;14.40;99.90
8655;DHT22;13500;52.514;13.462;2022-09-12T00:56:30;14.30;99.90
8655;DHT22;13500;52.514;13.462;2022-09-12T00:59:02;14.30;99.90
8655;DHT22;13500;52.514;13.462;2022-09-12T01:01:32;14.30;99.90
8655;DHT22;13500;52.514;13.462;2022-09-12T01:04:02;14.30;99.90
8655;DHT22;13500;52.514;13.462;2022-09-12T01:06:34;14.30;99.90
8655;DHT22;13500;52.514;13.462;2022-09-12T01:09:03;14.20;99.90
8655;DHT22;13500;52.514;13.462;2022-09-12T01:11:34;14.20;99.90
8655;DHT22;13500;52.514;13.462;2022-09-12T01:14:06;14.20;99.90
8655;DHT22;13500;52.514;13.462;2022-09-12T01:16:35;14.20;99.90
8655;DHT22;13500;52.514;13.462;2022-09-12T01:19:21;14.10;99.90
8655;DHT22;13500;52.514;13.462;2022-09-12T01:22:08;14.10;99.90
8655;DHT22;13500;52.514;13.462;2022-09-12T01:24:53;14.10;99.90
8655;DHT22;13500;52.514;13.462;2022-09-12T01:27:47;14.10;99.90
8655;DHT22;13500;52.514;13.462;2022-09-12T01:30:38;14.10;99.90
8655;DHT22;13500;52.514;13.462;2022-09-12T01:33:40;14.10;99.90
8655;DHT22;13500;52.514;13.462;2022-09-12T01:36:27;14.10;99.90
8655;DHT22;13500;52.514;13.462;2022-09-12T01:39:02;14.00;99.90
8655;DHT22;13500;52.514;13.462;2022-09-12T01:41:40;14.00;99.90
8655;DHT22;13500;52.514;13.462;2022-09-12T01:44:13;14.00;99.90
8655;DHT22;13500;52.514;13.462;2022-09-12T01:46:49;14.00;99.90
8655;DHT22;13500;52.514;13.462;2022-09-12T01:49:22;14.00;99.90
8655;DHT22;13500;52.514;13.462;2022-09-12T01:51:56;14.00;99.90
8655;DHT22;13500;52.514;13.462;2022-09-12T01:54:30;14.00;99.90
8655;DHT22;13500;52.514;13.462;2022-09-12T01:57:03;14.00;99.90
8655;DHT22;13500;52.514;13.462;2022-09-12T01:59:39;14.00;99.90
8655;DHT22;13500;52.514;13.462;2022-09-12T02:02:12;14.00;99.90
8655;DHT22;13500;52.514;13.462;2022-09-12T02:04:46;13.90;99.90
8655;DHT22;13500;52.514;13.462;2022-09-12T02:07:20;13.90;99.90
8655;DHT22;13500;52.514;13.462;2022-09-12T02:09:53;14.00;99.90
8655;DHT22;13500;52.514;13.462;2022-09-12T02:12:25;13.90;99.90
8655;DHT22;13500;52.514;13.462;2022-09-12T02:15:00;13.90;99.90
8655;DHT22;13500;52.514;13.462;2022-09-12T02:17:34;13.90;99.90
8655;DHT22;13500;52.514;13.462;2022-09-12T02:20:09;13.90;99.90
8655;DHT22;13500;52.514;13.462;2022-09-12T02:23:00;13.80;99.90
8655;DHT22;13500;52.514;13.462;2022-09-12T02:25:30;13.80;99.90
8655;DHT22;13500;52.514;13.462;2022-09-12T02:28:02;13.80;99.90
8655;DHT22;13500;52.514;13.462;2022-09-12T02:30:36;13.70;99.90
8655;DHT22;13500;52.514;13.462;2022-09-12T02:33:14;13.80;99.90
8655;DHT22;13500;52.514;13.462;2022-09-12T02:35:47;13.70;99.90
8655;DHT22;13500;52.514;13.462;2022-09-12T02:38:24;13.70;99.90
8655;DHT22;13500;52.514;13.462;2022-09-12T02:40:54;13.80;99.90
8655;DHT22;13500;52.514;13.462;2022-09-12T02:43:23;13.80;99.90
8655;DHT22;13500;52.514;13.462;2022-09-12T02:45:51;13.80;99.90
8655;DHT22;13500;52.514;13.462;2022-09-12T02:48:25;13.80;99.90
8655;DHT22;13500;52.514;13.462;2022-09-12T02:50:54;13.80;99.90
8655;DHT22;13500;52.514;13.462;2022-09-12T02:53:22;13.80;99.90
8655;DHT22;13500;52.514;13.462;2022-09-12T02:55:51;13.80;99.90
8655;DHT22;13500;52.514;13.462;2022-09-12T02:58:22;13.80;99.90
8655;DHT22;13500;52.514;13.462;2022-09-12T03:00:54;13.80;99.90
8655;DHT22;13500;52.514;13.462;2022-09-12T03:03:40;13.80;99.90
8655;DHT22;13500;52.514;13.462;2022-09-12T03:06:16;13.80;99.90
8655;DHT22;13500;52.514;13.462;2022-09-12T03:08:55;13.80;99.90
8655;DHT22;13500;52.514;13.462;2022-09-12T03:11:42;13.80;99.90
8655;DHT22;13500;52.514;13.462;2022-09-12T03:14:30;13.70;99.90
8655;DHT22;13500;52.514;13.462;2022-09-12T03:17:08;13.70;99.90
8655;DHT22;13500;52.514;13.462;2022-09-12T03:19:51;13.70;99.90
8655;DHT22;13500;52.514;13.462;2022-09-12T03:22:28;13.60;99.90
8655;DHT22;13500;52.514;13.462;2022-09-12T03:25:03;13.60;99.90
8655;DHT22;13500;52.514;13.462;2022-09-12T03:27:35;13.60;99.90
8655;DHT22;13500;52.514;13.462;2022-09-12T03:30:05;13.60;99.90
8655;DHT22;13500;52.514;13.462;2022-09-12T03:32:41;13.60;99.90
8655;DHT22;13500;52.514;13.462;2022-09-12T03:35:12;13.50;99.90
8655;DHT22;13500;52.514;13.462;2022-09-12T03:37:40;13.50;99.90
8655;DHT22;13500;52.514;13.462;2022-09-12T03:40:09;13.40;99.90
8655;DHT22;13500;52.514;13.462;2022-09-12T03:42:38;13.50;99.90
8655;DHT22;13500;52.514;13.462;2022-09-12T03:45:08;13.40;99.90
8655;DHT22;13500;52.514;13.462;2022-09-12T03:47:36;13.40;99.90
8655;DHT22;13500;52.514;13.462;2022-09-12T03:50:05;13.40;99.90
8655;DHT22;13500;52.514;13.462;2022-09-12T03:52:34;13.40;99.90
8655;DHT22;13500;52.514;13.462;2022-09-12T03:55:03;13.40;99.90
8655;DHT22;13500;52.514;13.462;2022-09-12T03:57:31;13.40;99.90
8655;DHT22;13500;52.514;13.462;2022-09-12T03:59:59;13.40;99.90
8655;DHT22;13500;52.514;13.462;2022-09-12T04:02:38;13.30;99.90
8655;DHT22;13500;52.514;13.462;2022-09-12T04:05:06;13.30;99.90
8655;DHT22;13500;52.514;13.462;2022-09-12T04:07:36;13.30;99.90
8655;DHT22;13500;52.514;13.462;2022-09-12T04:10:05;13.20;99.90
8655;DHT22;13500;52.514;13.462;2022-09-12T04:12:33;13.20;99.90
8655;DHT22;13500;52.514;13.462;2022-09-12T04:15:01;13.20;99.90
8655;DHT22;13500;52.514;13.462;2022-09-12T04:17:29;13.20;99.90
8655;DHT22;13500;52.514;13.462;2022-09-12T04:19:57;13.20;99.90
8655;DHT22;13500;52.514;13.462;2022-09-12T04:22:25;13.20;99.90
8655;DHT22;13500;52.514;13.462;2022-09-12T04:24:55;13.20;99.90
8655;DHT22;13500;52.514;13.462;2022-09-12T04:27:23;13.20;99.90
8655;DHT22;13500;52.514;13.462;2022-09-12T04:29:51;13.10;99.90
8655;DHT22;13500;52.514;13.462;2022-09-12T04:32:19;13.10;99.90
8655;DHT22;13500;52.514;13.462;2022-09-12T04:34:48;13.10;99.90
8655;DHT22;13500;52.514;13.462;2022-09-12T04:37:18;13.10;99.90
8655;DHT22;13500;52.514;13.462;2022-09-12T04:39:46;13.20;99.90
8655;DHT22;13500;52.514;13.462;2022-09-12T04:42:16;13.20;99.90
8655;DHT22;13500;52.514;13.462;2022-09-12T04:44:44;13.20;99.90
8655;DHT22;13500;52.514;13.462;2022-09-12T04:47:12;13.20;99.90
8655;DHT22;13500;52.514;13.462;2022-09-12T04:49:40;13.20;99.90
8655;DHT22;13500;52.514;13.462;2022-09-12T04:52:08;13.20;99.90
8655;DHT22;13500;52.514;13.462;2022-09-12T04:54:36;13.20;99.90
8655;DHT22;13500;52.514;13.462;2022-09-12T04:57:05;13.20;99.90
8655;DHT22;13500;52.514;13.462;2022-09-12T04:59:34;13.20;99.90
8655;DHT22;13500;52.514;13.462;2022-09-12T05:02:02;13.20;99.90
8655;DHT22;13500;52.514;13.462;2022-09-12T05:04:31;13.20;99.90
8655;DHT22;13500;52.514;13.462;2022-09-12T05:07:00;13.20;99.90
8655;DHT22;13500;52.514;13.462;2022-09-12T05:09:28;13.20;99.90
8655;DHT22;13500;52.514;13.462;2022-09-12T05:11:56;13.30;99.90
8655;DHT22;13500;52.514;13.462;2022-09-12T05:14:31;13.30;99.90
8655;DHT22;13500;52.514;13.462;2022-09-12T05:17:01;13.40;99.90
8655;DHT22;13500;52.514;13.462;2022-09-12T05:19:30;13.40;99.90
8655;DHT22;13500;52.514;13.462;2022-09-12T05:21:58;13.40;99.90
8655;DHT22;13500;52.514;13.462;2022-09-12T05:24:26;13.40;99.90
8655;DHT22;13500;52.514;13.462;2022-09-12T05:26:55;13.50;99.90
8655;DHT22;13500;52.514;13.462;2022-09-12T05:29:23;13.50;99.90
8655;DHT22;13500;52.514;13.462;2022-09-12T05:31:51;13.50;99.90
8655;DHT22;13500;52.514;13.462;2022-09-12T05:34:21;13.60;99.90
8655;DHT22;13500;52.514;13.462;2022-09-12T05:36:49;13.60;99.90
8655;DHT22;13500;52.514;13.462;2022-09-12T05:39:17;13.70;99.90
8655;DHT22;13500;52.514;13.462;2022-09-12T05:41:45;13.70;99.90
8655;DHT22;13500;52.514;13.462;2022-09-12T05:44:14;13.80;99.90
8655;DHT22;13500;52.514;13.462;2022-09-12T05:46:43;13.70;99.90
8655;DHT22;13500;52.514;13.462;2022-09-12T05:49:12;13.80;99.90
8655;DHT22;13500;52.514;13.462;2022-09-12T05:51:44;13.80;99.90
8655;DHT22;13500;52.514;13.462;2022-09-12T05:54:13;13.80;99.90
8655;DHT22;13500;52.514;13.462;2022-09-12T05:56:42;13.90;99.90
8655;DHT22;13500;52.514;13.462;2022-09-12T05:59:12;14.00;99.90
8655;DHT22;13500;52.514;13.462;2022-09-12T06:01:41;14.10;99.90
8655;DHT22;13500;52.514;13.462;2022-09-12T06:04:09;14.20;99.90
8655;DHT22;13500;52.514;13.462;2022-09-12T06:06:39;14.30;99.90
8655;DHT22;13500;52.514;13.462;2022-09-12T06:09:11;14.40;99.90
8655;DHT22;13500;52.514;13.462;2022-09-12T06:11:39;14.50;99.90
8655;DHT22;13500;52.514;13.462;2022-09-12T06:14:08;14.50;99.90
8655;DHT22;13500;52.514;13.462;2022-09-12T06:16:37;14.50;99.90
8655;DHT22;13500;52.514;13.462;2022-09-12T06:19:10;14.70;99.90
8655;DHT22;13500;52.514;13.462;2022-09-12T06:21:39;14.60;99.90
8655;DHT22;13500;52.514;13.462;2022-09-12T06:24:07;14.70;99.90
8655;DHT22;13500;52.514;13.462;2022-09-12T06:26:37;14.80;99.90
8655;DHT22;13500;52.514;13.462;2022-09-12T06:29:05;14.90;99.90
8655;DHT22;13500;52.514;13.462;2022-09-12T06:31:35;15.10;99.90
8655;DHT22;13500;52.514;13.462;2022-09-12T06:34:05;15.20;99.90
8655;DHT22;13500;52.514;13.462;2022-09-12T06:36:36;15.30;99.90
8655;DHT22;13500;52.514;13.462;2022-09-12T06:39:06;15.50;99.90
8655;DHT22;13500;52.514;13.462;2022-09-12T06:41:34;15.60;99.90
8655;DHT22;13500;52.514;13.462;2022-09-12T06:44:12;15.70;99.90
8655;DHT22;13500;52.514;13.462;2022-09-12T06:46:42;15.90;99.90
8655;DHT22;13500;52.514;13.462;2022-09-12T06:49:10;16.00;99.90
8655;DHT22;13500;52.514;13.462;2022-09-12T06:51:38;16.10;99.90
8655;DHT22;13500;52.514;13.462;2022-09-12T06:54:08;16.20;99.90
8655;DHT22;13500;52.514;13.462;2022-09-12T06:56:37;16.10;99.90
8655;DHT22;13500;52.514;13.462;2022-09-12T06:59:05;16.20;99.90
8655;DHT22;13500;52.514;13.462;2022-09-12T07:01:34;16.40;99.90
8655;DHT22;13500;52.514;13.462;2022-09-12T07:04:03;16.40;99.90
8655;DHT22;13500;52.514;13.462;2022-09-12T07:06:35;16.70;99.90
8655;DHT22;13500;52.514;13.462;2022-09-12T07:09:04;16.90;99.90
8655;DHT22;13500;52.514;13.462;2022-09-12T07:11:34;16.80;99.90
8655;DHT22;13500;52.514;13.462;2022-09-12T07:14:04;16.90;99.90
8655;DHT22;13500;52.514;13.462;2022-09-12T07:16:35;17.40;99.90
8655;DHT22;13500;52.514;13.462;2022-09-12T07:19:05;18.00;99.90
8655;DHT22;13500;52.514;13.462;2022-09-12T07:21:33;19.00;99.90
8655;DHT22;13500;52.514;13.462;2022-09-12T07:24:06;20.70;99.90
8655;DHT22;13500;52.514;13.462;2022-09-12T07:26:36;22.40;99.90
8655;DHT22;13500;52.514;13.462;2022-09-12T07:29:04;24.30;99.90
8655;DHT22;13500;52.514;13.462;2022-09-12T07:31:54;25.60;99.90
8655;DHT22;13500;52.514;13.462;2022-09-12T07:34:22;27.20;99.90
8655;DHT22;13500;52.514;13.462;2022-09-12T07:36:50;26.70;99.90
8655;DHT22;13500;52.514;13.462;2022-09-12T07:39:18;28.50;99.90
8655;DHT22;13500;52.514;13.462;2022-09-12T07:41:46;30.70;99.90
8655;DHT22;13500;52.514;13.462;2022-09-12T07:44:14;31.60;96.30
8655;DHT22;13500;52.514;13.462;2022-09-12T07:46:42;32.20;93.90
8655;DHT22;13500;52.514;13.462;2022-09-12T07:49:12;33.30;92.20
8655;DHT22;13500;52.514;13.462;2022-09-12T07:51:40;34.70;87.80
8655;DHT22;13500;52.514;13.462;2022-09-12T07:54:09;35.50;81.50
8655;DHT22;13500;52.514;13.462;2022-09-12T07:56:37;35.60;75.40
8655;DHT22;13500;52.514;13.462;2022-09-12T07:59:06;31.70;77.90
8655;DHT22;13500;52.514;13.462;2022-09-12T08:01:35;32.80;80.40
8655;DHT22;13500;52.514;13.462;2022-09-12T08:04:03;34.20;76.30
8655;DHT22;13500;52.514;13.462;2022-09-12T08:06:33;31.00;75.00
8655;DHT22;13500;52.514;13.462;2022-09-12T08:09:03;29.10;79.70
8655;DHT22;13500;52.514;13.462;2022-09-12T08:11:32;30.40;81.40
8655;DHT22;13500;52.514;13.462;2022-09-12T08:14:00;31.00;78.20
8655;DHT22;13500;52.514;13.462;2022-09-12T08:16:30;29.90;79.00
8655;DHT22;13500;52.514;13.462;2022-09-12T08:18:59;27.20;81.60
8655;DHT22;13500;52.514;13.462;2022-09-12T08:21:29;25.90;85.20
8655;DHT22;13500;52.514;13.462;2022-09-12T08:24:00;24.70;89.80
8655;DHT22;13500;52.514;13.462;2022-09-12T08:26:28;27.30;88.00
8655;DHT22;13500;52.514;13.462;2022-09-12T08:28:56;29.10;84.40
8655;DHT22;13500;52.514;13.462;2022-09-12T08:31:26;29.80;81.30
8655;DHT22;13500;52.514;13.462;2022-09-12T08:33:55;28.90;83.10
8655;DHT22;13500;52.514;13.462;2022-09-12T08:36:25;28.90;82.60
8655;DHT22;13500;52.514;13.462;2022-09-12T08:38:55;29.20;81.30
8655;DHT22;13500;52.514;13.462;2022-09-12T08:41:30;29.10;81.00
8655;DHT22;13500;52.514;13.462;2022-09-12T08:44:18;29.80;80.50
8655;DHT22;13500;52.514;13.462;2022-09-12T08:47:01;28.70;79.90
8655;DHT22;13500;52.514;13.462;2022-09-12T08:49:38;30.70;79.50
8655;DHT22;13500;52.514;13.462;2022-09-12T08:52:12;31.10;75.40
8655;DHT22;13500;52.514;13.462;2022-09-12T08:54:42;29.20;78.90
8655;DHT22;13500;52.514;13.462;2022-09-12T08:57:14;30.40;77.10
8655;DHT22;13500;52.514;13.462;2022-09-12T08:59:43;31.40;76.30
8655;DHT22;13500;52.514;13.462;2022-09-12T09:02:28;32.40;72.20
8655;DHT22;13500;52.514;13.462;2022-09-12T09:05:02;32.30;74.40
8655;DHT22;13500;52.514;13.462;2022-09-12T09:10:38;32.40;72.50
8655;DHT22;13500;52.514;13.462;2022-09-12T09:13:22;31.30;73.10
8655;DHT22;13500;52.514;13.462;2022-09-12T09:16:12;30.50;72.10
8655;DHT22;13500;52.514;13.462;2022-09-12T09:18:43;28.90;73.80
8655;DHT22;13500;52.514;13.462;2022-09-12T09:21:20;27.00;75.60
8655;DHT22;13500;52.514;13.462;2022-09-12T09:23:55;25.40;78.10
8655;DHT22;13500;52.514;13.462;2022-09-12T09:26:29;24.40;81.90
8655;DHT22;13500;52.514;13.462;2022-09-12T09:29:06;24.10;83.80
8655;DHT22;13500;52.514;13.462;2022-09-12T09:31:38;24.80;84.40
8655;DHT22;13500;52.514;13.462;2022-09-12T09:34:13;26.60;83.60
8655;DHT22;13500;52.514;13.462;2022-09-12T09:36:48;29.00;80.20
8655;DHT22;13500;52.514;13.462;2022-09-12T09:39:24;29.80;76.80
8655;DHT22;13500;52.514;13.462;2022-09-12T09:42:07;31.60;72.60
8655;DHT22;13500;52.514;13.462;2022-09-12T09:44:38;31.20;69.10
8655;DHT22;13500;52.514;13.462;2022-09-12T09:47:08;29.60;70.30
8655;DHT22;13500;52.514;13.462;2022-09-12T09:49:37;27.30;70.70
8655;DHT22;13500;52.514;13.462;2022-09-12T09:52:06;25.00;75.20
8655;DHT22;13500;52.514;13.462;2022-09-12T09:54:38;24.40;76.30
8655;DHT22;13500;52.514;13.462;2022-09-12T09:57:38;23.80;77.60
8655;DHT22;13500;52.514;13.462;2022-09-12T10:00:25;23.40;79.70
8655;DHT22;13500;52.514;13.462;2022-09-12T10:05:49;22.80;82.60
8655;DHT22;13500;52.514;13.462;2022-09-12T10:08:23;22.90;83.70
8655;DHT22;13500;52.514;13.462;2022-09-12T10:10:53;23.30;83.80
8655;DHT22;13500;52.514;13.462;2022-09-12T10:13:26;24.90;80.90
8655;DHT22;13500;52.514;13.462;2022-09-12T10:15:58;26.50;77.70
8655;DHT22;13500;52.514;13.462;2022-09-12T10:18:37;26.40;78.20
8655;DHT22;13500;52.514;13.462;2022-09-12T10:21:27;27.30;74.40
8655;DHT22;13500;52.514;13.462;2022-09-12T10:24:02;29.90;72.20
8655;DHT22;13500;52.514;13.462;2022-09-12T10:26:33;29.90;71.60
8655;DHT22;13500;52.514;13.462;2022-09-12T10:29:09;30.60;70.20
8655;DHT22;13500;52.514;13.462;2022-09-12T10:31:46;30.50;72.00
8655;DHT22;13500;52.514;13.462;2022-09-12T10:34:25;31.40;69.30
8655;DHT22;13500;52.514;13.462;2022-09-12T10:37:00;30.20;68.80
8655;DHT22;13500;52.514;13.462;2022-09-12T10:39:29;29.50;68.70
8655;DHT22;13500;52.514;13.462;2022-09-12T10:41:58;30.90;67.50
8655;DHT22;13500;52.514;13.462;2022-09-12T10:44:29;28.70;68.60
8655;DHT22;13500;52.514;13.462;2022-09-12T10:47:03;29.10;67.60
8655;DHT22;13500;52.514;13.462;2022-09-12T10:49:46;28.50;67.40
8655;DHT22;13500;52.514;13.462;2022-09-12T10:52:20;30.30;67.00
8655;DHT22;13500;52.514;13.462;2022-09-12T10:54:49;31.60;65.90
8655;DHT22;13500;52.514;13.462;2022-09-12T10:57:48;32.40;62.20
8655;DHT22;13500;52.514;13.462;2022-09-12T11:00:19;32.20;63.10
8655;DHT22;13500;52.514;13.462;2022-09-12T11:03:04;31.70;63.50
8655;DHT22;13500;52.514;13.462;2022-09-12T11:05:48;30.40;65.40
8655;DHT22;13500;52.514;13.462;2022-09-12T11:08:39;30.50;64.20
8655;DHT22;13500;52.514;13.462;2022-09-12T11:11:18;29.00;64.10
8655;DHT22;13500;52.514;13.462;2022-09-12T11:14:01;28.30;66.00
8655;DHT22;13500;52.514;13.462;2022-09-12T11:16:38;28.10;66.90
8655;DHT22;13500;52.514;13.462;2022-09-12T11:19:25;27.80;68.20
8655;DHT22;13500;52.514;13.462;2022-09-12T11:22:08;27.80;68.10
8655;DHT22;13500;52.514;13.462;2022-09-12T11:25:06;27.40;68.80
8655;DHT22;13500;52.514;13.462;2022-09-12T11:27:48;27.50;68.80
8655;DHT22;13500;52.514;13.462;2022-09-12T11:30:20;27.50;69.40
8655;DHT22;13500;52.514;13.462;2022-09-12T11:33:00;26.40;69.80
8655;DHT22;13500;52.514;13.462;2022-09-12T11:35:35;25.60;72.20
8655;DHT22;13500;52.514;13.462;2022-09-12T11:38:17;25.30;72.30
8655;DHT22;13500;52.514;13.462;2022-09-12T11:40:52;24.60;73.10
8655;DHT22;13500;52.514;13.462;2022-09-12T11:43:30;24.00;74.70
8655;DHT22;13500;52.514;13.462;2022-09-12T11:46:07;23.50;74.60
8655;DHT22;13500;52.514;13.462;2022-09-12T11:48:41;23.50;74.60
8655;DHT22;13500;52.514;13.462;2022-09-12T11:51:17;23.90;74.90
8655;DHT22;13500;52.514;13.462;2022-09-12T11:53:58;24.40;74.70
8655;DHT22;13500;52.514;13.462;2022-09-12T11:56:26;24.50;72.60
8655;DHT22;13500;52.514;13.462;2022-09-12T11:58:58;24.40;72.20
8655;DHT22;13500;52.514;13.462;2022-09-12T12:01:31;24.00;74.00
8655;DHT22;13500;52.514;13.462;2022-09-12T12:04:11;24.10;73.80
8655;DHT22;13500;52.514;13.462;2022-09-12T12:06:48;24.30;73.20
8655;DHT22;13500;52.514;13.462;2022-09-12T12:09:17;24.70;72.30
8655;DHT22;13500;52.514;13.462;2022-09-12T12:11:49;24.60;72.60
8655;DHT22;13500;52.514;13.462;2022-09-12T12:14:22;24.40;73.10
8655;DHT22;13500;52.514;13.462;2022-09-12T12:16:52;24.40;72.60
8655;DHT22;13500;52.514;13.462;2022-09-12T12:19:31;24.20;72.80
8655;DHT22;13500;52.514;13.462;2022-09-12T12:22:14;24.70;73.10
8655;DHT22;13500;52.514;13.462;2022-09-12T12:25:02;24.90;71.80
8655;DHT22;13500;52.514;13.462;2022-09-12T12:27:52;24.80;72.20
8655;DHT22;13500;52.514;13.462;2022-09-12T12:34:02;24.70;71.70
8655;DHT22;13500;52.514;13.462;2022-09-12T12:36:35;23.50;73.40
8655;DHT22;13500;52.514;13.462;2022-09-12T12:46:06;23.30;75.40
8655;DHT22;13500;52.514;13.462;2022-09-12T12:48:47;23.60;75.50
8655;DHT22;13500;52.514;13.462;2022-09-12T12:51:42;23.30;74.80
8655;DHT22;13500;52.514;13.462;2022-09-12T12:57:27;22.80;74.30
8655;DHT22;13500;52.514;13.462;2022-09-12T13:00:00;22.70;75.10
8655;DHT22;13500;52.514;13.462;2022-09-12T13:02:33;23.30;74.80
8655;DHT22;13500;52.514;13.462;2022-09-12T13:05:05;23.70;74.10
8655;DHT22;13500;52.514;13.462;2022-09-12T13:07:36;23.80;74.20
8655;DHT22;13500;52.514;13.462;2022-09-12T13:10:06;24.10;73.50
8655;DHT22;13500;52.514;13.462;2022-09-12T13:12:37;23.70;74.40
8655;DHT22;13500;52.514;13.462;2022-09-12T13:18:16;23.20;76.00
8655;DHT22;13500;52.514;13.462;2022-09-12T13:20:48;23.30;76.60
8655;DHT22;13500;52.514;13.462;2022-09-12T13:23:23;23.60;76.70
8655;DHT22;13500;52.514;13.462;2022-09-12T13:25:55;23.80;75.20
8655;DHT22;13500;52.514;13.462;2022-09-12T13:28:24;23.80;75.60
8655;DHT22;13500;52.514;13.462;2022-09-12T13:30:59;23.40;75.90
8655;DHT22;13500;52.514;13.462;2022-09-12T13:33:36;23.30;75.60
8655;DHT22;13500;52.514;13.462;2022-09-12T13:36:24;22.90;76.30
8655;DHT22;13500;52.514;13.462;2022-09-12T13:39:08;22.90;76.80
8655;DHT22;13500;52.514;13.462;2022-09-12T13:44:48;23.20;75.90
8655;DHT22;13500;52.514;13.462;2022-09-12T13:47:24;22.70;76.70
8655;DHT22;13500;52.514;13.462;2022-09-12T13:49:55;23.20;77.40
8655;DHT22;13500;52.514;13.462;2022-09-12T13:52:25;23.00;76.20
8655;DHT22;13500;52.514;13.462;2022-09-12T13:54:56;22.90;75.90
8655;DHT22;13500;52.514;13.462;2022-09-12T13:57:30;23.00;77.00
8655;DHT22;13500;52.514;13.462;2022-09-12T14:00:02;23.20;78.30
8655;DHT22;13500;52.514;13.462;2022-09-12T14:02:34;23.40;77.10
8655;DHT22;13500;52.514;13.462;2022-09-12T14:05:12;23.50;76.60
8655;DHT22;13500;52.514;13.462;2022-09-12T14:07:48;23.40;76.40
8655;DHT22;13500;52.514;13.462;2022-09-12T14:10:29;23.30;76.60
8655;DHT22;13500;52.514;13.462;2022-09-12T14:12:59;23.20;76.70
8655;DHT22;13500;52.514;13.462;2022-09-12T14:15:31;22.90;76.40
8655;DHT22;13500;52.514;13.462;2022-09-12T14:18:01;22.70;77.30
8655;DHT22;13500;52.514;13.462;2022-09-12T14:20:34;22.30;78.00
8655;DHT22;13500;52.514;13.462;2022-09-12T14:23:04;22.60;77.90
8655;DHT22;13500;52.514;13.462;2022-09-12T14:25:36;22.50;77.20
8655;DHT22;13500;52.514;13.462;2022-09-12T14:28:05;22.60;77.40
8655;DHT22;13500;52.514;13.462;2022-09-12T14:30:35;22.80;78.70
8655;DHT22;13500;52.514;13.462;2022-09-12T14:33:12;22.80;77.40
8655;DHT22;13500;52.514;13.462;2022-09-12T14:35:46;22.70;78.50
8655;DHT22;13500;52.514;13.462;2022-09-12T14:38:22;22.60;79.00
8655;DHT22;13500;52.514;13.462;2022-09-12T14:40:57;22.40;79.40
8655;DHT22;13500;52.514;13.462;2022-09-12T14:43:27;22.00;79.80
8655;DHT22;13500;52.514;13.462;2022-09-12T14:45:57;22.00;80.40
8655;DHT22;13500;52.514;13.462;2022-09-12T14:48:29;22.10;80.40
8655;DHT22;13500;52.514;13.462;2022-09-12T14:51:00;22.00;80.50
8655;DHT22;13500;52.514;13.462;2022-09-12T14:53:32;22.00;79.80
8655;DHT22;13500;52.514;13.462;2022-09-12T14:56:08;22.00;80.30
8655;DHT22;13500;52.514;13.462;2022-09-12T14:58:38;21.90;80.30
8655;DHT22;13500;52.514;13.462;2022-09-12T15:01:23;21.90;80.80
8655;DHT22;13500;52.514;13.462;2022-09-12T15:03:54;22.00;80.40
8655;DHT22;13500;52.514;13.462;2022-09-12T15:06:27;21.90;80.00
8655;DHT22;13500;52.514;13.462;2022-09-12T15:08:58;21.90;80.50
8655;DHT22;13500;52.514;13.462;2022-09-12T15:11:26;21.90;80.00
8655;DHT22;13500;52.514;13.462;2022-09-12T15:13:54;21.70;80.30
8655;DHT22;13500;52.514;13.462;2022-09-12T15:16:22;21.70;79.80
8655;DHT22;13500;52.514;13.462;2022-09-12T15:18:50;21.60;80.30
8655;DHT22;13500;52.514;13.462;2022-09-12T15:21:19;21.40;80.30
8655;DHT22;13500;52.514;13.462;2022-09-12T15:23:50;21.30;80.20
8655;DHT22;13500;52.514;13.462;2022-09-12T15:26:19;21.40;80.90
8655;DHT22;13500;52.514;13.462;2022-09-12T15:28:48;21.40;80.30
8655;DHT22;13500;52.514;13.462;2022-09-12T15:31:22;21.40;81.20
8655;DHT22;13500;52.514;13.462;2022-09-12T15:33:51;21.40;80.50
8655;DHT22;13500;52.514;13.462;2022-09-12T15:36:21;21.20;79.60
8655;DHT22;13500;52.514;13.462;2022-09-12T15:38:51;21.00;80.50
8655;DHT22;13500;52.514;13.462;2022-09-12T15:41:21;21.00;80.90
8655;DHT22;13500;52.514;13.462;2022-09-12T15:43:49;21.00;80.50
8655;DHT22;13500;52.514;13.462;2022-09-12T15:46:18;21.00;80.70
8655;DHT22;13500;52.514;13.462;2022-09-12T15:48:46;21.00;81.10
8655;DHT22;13500;52.514;13.462;2022-09-12T15:51:16;21.10;80.80
8655;DHT22;13500;52.514;13.462;2022-09-12T15:53:45;21.10;80.60
8655;DHT22;13500;52.514;13.462;2022-09-12T15:56:17;21.00;80.90
8655;DHT22;13500;52.514;13.462;2022-09-12T15:58:46;21.10;81.10
8655;DHT22;13500;52.514;13.462;2022-09-12T16:01:30;21.10;81.30
8655;DHT22;13500;52.514;13.462;2022-09-12T16:03:58;21.00;81.10
8655;DHT22;13500;52.514;13.462;2022-09-12T16:06:26;21.00;81.50
8655;DHT22;13500;52.514;13.462;2022-09-12T16:09:02;20.90;81.60
8655;DHT22;13500;52.514;13.462;2022-09-12T16:11:31;20.90;81.40
8655;DHT22;13500;52.514;13.462;2022-09-12T16:13:59;20.90;81.80
8655;DHT22;13500;52.514;13.462;2022-09-12T16:16:27;20.90;81.60
8655;DHT22;13500;52.514;13.462;2022-09-12T16:18:55;20.80;82.30
8655;DHT22;13500;52.514;13.462;2022-09-12T16:21:24;20.80;82.60
8655;DHT22;13500;52.514;13.462;2022-09-12T16:23:52;20.70;83.10
8655;DHT22;13500;52.514;13.462;2022-09-12T16:26:20;20.80;82.90
8655;DHT22;13500;52.514;13.462;2022-09-12T16:28:54;20.70;83.60
8655;DHT22;13500;52.514;13.462;2022-09-12T16:31:23;20.70;83.10